createdAt,value
2017-08-15T00:00:33.385Z,21.60
2017-08-15T00:03:00.878Z,21.60
2017-08-15T00:05:29.102Z,21.50
2017-08-15T00:07:56.573Z,21.50
2017-08-15T00:10:24.062Z,21.50
2017-08-15T00:12:51.522Z,21.50
2017-08-15T00:15:18.972Z,21.50
2017-08-15T00:17:46.453Z,21.50
2017-08-15T00:20:14.682Z,21.50
2017-08-15T00:22:42.138Z,21.50
2017-08-15T00:25:09.625Z,21.50
2017-08-15T00:27:37.096Z,21.50
2017-08-15T00:30:05.353Z,21.50
2017-08-15T00:32:32.853Z,21.50
2017-08-15T00:35:00.316Z,21.50
2017-08-15T00:37:27.772Z,21.50
2017-08-15T00:39:55.250Z,21.50
2017-08-15T00:42:22.725Z,21.40
2017-08-15T00:44:50.206Z,21.40
2017-08-15T00:47:17.658Z,21.40
2017-08-15T00:49:45.118Z,21.40
2017-08-15T00:52:12.589Z,21.40
2017-08-15T00:54:40.067Z,21.30
2017-08-15T00:57:07.534Z,21.30
2017-08-15T00:59:34.989Z,21.30
2017-08-15T01:02:02.468Z,21.30
2017-08-15T01:04:29.956Z,21.20
2017-08-15T01:06:57.421Z,21.20
2017-08-15T01:09:24.877Z,21.20
2017-08-15T01:11:52.349Z,21.20
2017-08-15T01:14:19.818Z,21.20
2017-08-15T01:16:47.382Z,21.20
2017-08-15T01:19:14.874Z,21.20
2017-08-15T01:21:42.459Z,21.10
2017-08-15T01:24:09.911Z,21.10
2017-08-15T01:26:37.382Z,21.10
2017-08-15T01:29:04.854Z,21.10
2017-08-15T01:31:32.315Z,21.10
2017-08-15T01:33:59.784Z,21.20
2017-08-15T01:36:27.241Z,21.10
2017-08-15T01:38:54.748Z,21.10
2017-08-15T01:41:22.210Z,21.10
2017-08-15T01:43:49.667Z,21.10
2017-08-15T01:46:17.142Z,21.10
2017-08-15T01:48:44.613Z,21.00
2017-08-15T01:51:12.085Z,21.10
2017-08-15T01:53:39.545Z,21.00
2017-08-15T01:56:07.031Z,21.00
2017-08-15T01:58:35.249Z,21.00
2017-08-15T02:01:02.714Z,20.90
2017-08-15T02:03:30.204Z,20.90
2017-08-15T02:05:57.654Z,20.90
2017-08-15T02:08:25.114Z,20.90
2017-08-15T02:10:52.598Z,20.90
2017-08-15T02:13:21.090Z,20.80
2017-08-15T02:15:48.545Z,20.80
2017-08-15T02:18:16.286Z,20.80
2017-08-15T02:20:43.741Z,20.80
2017-08-15T02:23:11.229Z,20.80
2017-08-15T02:25:38.690Z,20.70
2017-08-15T02:28:06.150Z,20.70
2017-08-15T02:30:33.696Z,20.70
2017-08-15T02:33:01.151Z,20.60
2017-08-15T02:35:29.377Z,20.50
2017-08-15T02:37:56.851Z,20.50
2017-08-15T02:40:24.310Z,20.50
2017-08-15T02:42:51.825Z,20.40
2017-08-15T02:45:19.289Z,20.40
2017-08-15T02:47:46.745Z,20.40
2017-08-15T02:50:14.223Z,20.40
2017-08-15T02:52:41.702Z,20.40
2017-08-15T02:55:09.150Z,20.30
2017-08-15T02:57:36.642Z,20.30
2017-08-15T03:00:04.108Z,20.20
2017-08-15T03:02:31.561Z,20.20
2017-08-15T03:04:59.045Z,20.20
2017-08-15T03:07:26.523Z,20.10
2017-08-15T03:09:53.997Z,20.10
2017-08-15T03:12:21.468Z,20.10
2017-08-15T03:14:48.922Z,20.10
2017-08-15T03:17:16.398Z,20.10
2017-08-15T03:19:43.850Z,20.10
2017-08-15T03:22:11.329Z,20.00
2017-08-15T03:24:38.873Z,20.00
2017-08-15T03:27:06.326Z,20.00
2017-08-15T03:29:33.814Z,20.00
2017-08-15T03:32:01.498Z,20.00
2017-08-15T03:34:28.944Z,20.00
2017-08-15T03:36:56.579Z,20.00
2017-08-15T03:39:24.122Z,20.00
2017-08-15T03:41:51.589Z,20.00
2017-08-15T03:44:19.045Z,20.00
2017-08-15T03:46:46.561Z,20.00
2017-08-15T03:49:14.022Z,20.00
2017-08-15T03:51:41.478Z,20.00
2017-08-15T03:54:08.964Z,20.00
2017-08-15T03:56:36.425Z,20.00
2017-08-15T03:59:03.897Z,19.90
2017-08-15T04:01:31.382Z,19.90
2017-08-15T04:03:58.837Z,19.90
2017-08-15T04:06:26.322Z,19.80
2017-08-15T04:08:53.821Z,19.80
2017-08-15T04:11:21.302Z,19.80
2017-08-15T04:13:48.785Z,19.70
2017-08-15T04:16:16.242Z,19.70
2017-08-15T04:18:43.721Z,19.60
2017-08-15T04:21:11.168Z,19.60
2017-08-15T04:23:38.647Z,19.60
2017-08-15T04:26:06.160Z,19.60
2017-08-15T04:28:34.402Z,19.50
2017-08-15T04:31:01.869Z,19.50
2017-08-15T04:33:29.389Z,19.50
2017-08-15T04:35:56.841Z,19.50
2017-08-15T04:38:24.330Z,19.50
2017-08-15T04:40:51.814Z,19.50
2017-08-15T04:43:19.310Z,19.50
2017-08-15T04:45:46.768Z,19.40
2017-08-15T04:48:14.230Z,19.40
2017-08-15T04:50:41.710Z,19.40
2017-08-15T04:53:09.436Z,19.40
2017-08-15T04:55:36.897Z,19.40
2017-08-15T04:58:04.345Z,19.40
2017-08-15T05:00:31.829Z,19.40
2017-08-15T05:02:59.294Z,19.50
2017-08-15T05:05:26.768Z,19.50
2017-08-15T05:07:54.595Z,19.50
2017-08-15T05:10:22.090Z,19.60
2017-08-15T05:12:49.558Z,19.70
2017-08-15T05:15:17.025Z,19.70
2017-08-15T05:17:44.542Z,19.70
2017-08-15T05:20:11.991Z,19.70
2017-08-15T05:22:39.472Z,19.70
2017-08-15T05:25:06.947Z,19.70
2017-08-15T05:27:34.421Z,19.70
2017-08-15T05:30:01.994Z,19.70
2017-08-15T05:32:29.473Z,19.80
2017-08-15T05:34:56.934Z,19.80
2017-08-15T05:37:24.413Z,19.80
2017-08-15T05:39:51.902Z,19.90
2017-08-15T05:42:19.382Z,19.90
2017-08-15T05:44:46.869Z,20.00
2017-08-15T05:47:14.338Z,20.00
2017-08-15T05:49:41.792Z,20.00
2017-08-15T05:52:09.286Z,20.00
2017-08-15T05:54:36.738Z,20.10
2017-08-15T05:57:04.233Z,20.20
2017-08-15T05:59:31.686Z,20.30
2017-08-15T06:01:59.163Z,20.40
2017-08-15T06:04:26.613Z,20.50
2017-08-15T06:06:54.093Z,20.50
2017-08-15T06:09:21.594Z,20.50
2017-08-15T06:11:49.063Z,20.50
2017-08-15T06:14:16.518Z,20.50
2017-08-15T06:16:44.005Z,20.40
2017-08-15T06:19:12.220Z,20.50
2017-08-15T06:21:39.701Z,20.50
2017-08-15T06:24:07.185Z,20.60
2017-08-15T06:26:34.645Z,20.70
2017-08-15T06:29:02.217Z,20.80
2017-08-15T06:31:29.697Z,21.00
2017-08-15T06:33:57.172Z,21.20
2017-08-15T06:36:24.658Z,21.40
2017-08-15T06:38:52.119Z,21.50
2017-08-15T06:41:19.581Z,21.60
2017-08-15T06:43:47.070Z,21.80
2017-08-15T06:46:15.289Z,21.90
2017-08-15T06:48:42.790Z,21.90
2017-08-15T06:51:10.273Z,21.90
2017-08-15T06:53:37.745Z,22.00
2017-08-15T06:56:05.225Z,22.00
2017-08-15T06:58:32.742Z,22.00
2017-08-15T07:01:00.204Z,22.00
2017-08-15T07:03:27.676Z,22.00
2017-08-15T07:05:55.152Z,22.00
2017-08-15T07:08:22.615Z,22.00
2017-08-15T07:10:50.090Z,22.00
2017-08-15T07:13:17.550Z,22.10
2017-08-15T07:15:45.037Z,22.10
2017-08-15T07:18:13.256Z,22.10
2017-08-15T07:20:40.755Z,22.10
2017-08-15T07:23:08.252Z,22.20
2017-08-15T07:25:35.710Z,22.20
2017-08-15T07:28:03.200Z,22.30
2017-08-15T07:30:30.702Z,22.30
2017-08-15T07:32:58.158Z,22.30
2017-08-15T07:35:25.628Z,22.30
2017-08-15T07:37:53.156Z,22.40
2017-08-15T07:40:20.617Z,22.40
2017-08-15T07:42:48.088Z,22.40
2017-08-15T07:45:15.583Z,22.40
2017-08-15T07:47:43.043Z,22.50
2017-08-15T07:50:10.550Z,22.50
2017-08-15T07:52:38.052Z,22.50
2017-08-15T07:55:05.515Z,22.50
2017-08-15T07:57:32.977Z,22.60
2017-08-15T08:00:00.459Z,22.60
2017-08-15T08:02:27.948Z,22.70
2017-08-15T08:04:55.429Z,22.70
2017-08-15T08:07:22.892Z,22.80
2017-08-15T08:09:51.150Z,22.80
2017-08-15T08:12:18.654Z,22.80
2017-08-15T08:14:46.113Z,22.90
2017-08-15T08:17:13.564Z,22.90
2017-08-15T08:19:41.107Z,23.00
2017-08-15T08:22:08.565Z,23.00
2017-08-15T08:24:36.047Z,23.10
2017-08-15T08:27:03.509Z,23.10
2017-08-15T08:29:30.997Z,23.20
2017-08-15T08:31:58.469Z,23.20
2017-08-15T08:34:25.930Z,23.30
2017-08-15T08:36:53.414Z,23.30
2017-08-15T08:39:21.633Z,23.30
2017-08-15T08:41:49.133Z,23.30
2017-08-15T08:44:16.590Z,23.30
2017-08-15T08:46:44.054Z,23.30
2017-08-15T08:49:11.638Z,23.30
2017-08-15T08:51:39.098Z,23.30
2017-08-15T08:54:06.569Z,23.40
2017-08-15T08:56:34.033Z,23.40
2017-08-15T08:59:01.507Z,23.40
2017-08-15T09:01:29.005Z,23.40
2017-08-15T09:03:56.447Z,23.40
2017-08-15T09:06:24.681Z,23.40
2017-08-15T09:08:52.173Z,23.30
2017-08-15T09:11:19.621Z,23.30
2017-08-15T09:13:47.065Z,23.30
2017-08-15T09:16:14.533Z,23.30
2017-08-15T09:18:42.003Z,23.20
2017-08-15T09:21:09.580Z,23.20
2017-08-15T09:23:37.035Z,23.20
2017-08-15T09:26:04.531Z,23.20
2017-08-15T09:28:31.990Z,23.20
2017-08-15T09:30:59.458Z,23.20
2017-08-15T09:33:26.951Z,23.20
2017-08-15T09:35:54.436Z,23.20
2017-08-15T09:38:21.898Z,23.20
2017-08-15T09:40:50.126Z,23.20
2017-08-15T09:43:17.625Z,23.20
2017-08-15T09:45:45.106Z,23.10
2017-08-15T09:48:12.646Z,23.10
2017-08-15T09:50:40.126Z,23.10
2017-08-15T09:53:07.609Z,23.10
2017-08-15T09:55:35.094Z,23.00
2017-08-15T09:58:08.288Z,22.90
2017-08-15T10:00:35.797Z,22.90
2017-08-15T10:03:03.236Z,22.90
2017-08-15T10:05:31.454Z,22.90
2017-08-15T10:07:58.968Z,22.90
2017-08-15T10:10:26.513Z,22.90
2017-08-15T10:12:53.967Z,23.00
2017-08-15T10:15:21.442Z,23.00
2017-08-15T10:17:48.934Z,23.00
2017-08-15T10:20:16.421Z,23.10
2017-08-15T10:22:43.881Z,23.10
2017-08-15T10:25:11.449Z,23.10
2017-08-15T10:27:38.952Z,23.20
2017-08-15T10:30:07.177Z,23.70
2017-08-15T10:32:34.642Z,23.70
2017-08-15T10:35:02.123Z,24.00
2017-08-15T10:37:29.578Z,24.30
2017-08-15T10:39:57.158Z,24.70
2017-08-15T10:42:24.617Z,24.90
2017-08-15T10:44:52.093Z,25.10
2017-08-15T10:47:19.582Z,25.20
2017-08-15T10:49:47.051Z,25.30
2017-08-15T10:52:14.566Z,25.50
2017-08-15T10:54:42.026Z,25.60
2017-08-15T10:57:09.605Z,25.60
2017-08-15T10:59:37.089Z,25.60
2017-08-15T11:02:04.574Z,25.60
2017-08-15T11:04:32.027Z,25.60
2017-08-15T11:06:59.482Z,25.70
2017-08-15T11:09:27.058Z,25.70
2017-08-15T11:11:54.521Z,25.80
2017-08-15T11:14:21.998Z,25.80
2017-08-15T11:16:49.450Z,26.00
2017-08-15T11:19:16.925Z,26.10
2017-08-15T11:21:44.387Z,26.30
2017-08-15T11:24:11.905Z,26.40
2017-08-15T11:26:39.358Z,26.50
2017-08-15T11:29:06.802Z,26.60
2017-08-15T11:31:34.294Z,26.70
2017-08-15T11:34:01.747Z,26.90
2017-08-15T11:36:29.197Z,27.00
2017-08-15T11:38:56.678Z,27.10
2017-08-15T11:41:24.137Z,27.30
2017-08-15T11:43:51.622Z,27.50
2017-08-15T11:46:19.078Z,27.80
2017-08-15T11:48:46.574Z,27.90
2017-08-15T11:51:14.034Z,28.00
2017-08-15T11:53:41.497Z,27.90
2017-08-15T11:56:08.977Z,27.80
2017-08-15T11:58:36.445Z,27.80
2017-08-15T12:01:03.910Z,27.90
2017-08-15T12:03:31.362Z,28.10
2017-08-15T12:05:58.833Z,28.20
2017-08-15T12:08:26.290Z,28.30
2017-08-15T12:10:53.749Z,28.50
2017-08-15T12:13:21.227Z,28.70
2017-08-15T12:15:48.701Z,28.80
2017-08-15T12:18:16.146Z,28.90
2017-08-15T12:20:43.598Z,29.10
2017-08-15T12:23:11.078Z,29.20
2017-08-15T12:25:38.545Z,29.50
2017-08-15T12:28:06.022Z,29.70
2017-08-15T12:30:33.494Z,29.80
2017-08-15T12:33:00.941Z,29.90
2017-08-15T12:35:29.170Z,30.00
2017-08-15T12:37:56.622Z,30.00
2017-08-15T12:40:24.093Z,30.10
2017-08-15T12:42:51.550Z,30.00
2017-08-15T12:45:19.033Z,30.00
2017-08-15T12:47:46.518Z,30.00
2017-08-15T12:50:14.725Z,30.00
2017-08-15T12:52:42.206Z,30.00
2017-08-15T12:55:09.666Z,30.00
2017-08-15T12:57:37.136Z,30.00
2017-08-15T13:00:04.687Z,29.90
2017-08-15T13:02:32.157Z,29.80
2017-08-15T13:04:59.605Z,29.70
2017-08-15T13:07:27.077Z,29.80
2017-08-15T13:09:54.582Z,29.80
2017-08-15T13:12:22.074Z,29.70
2017-08-15T13:14:49.517Z,29.60
2017-08-15T13:17:17.002Z,29.50
2017-08-15T13:19:44.490Z,29.40
2017-08-15T13:22:11.944Z,29.50
2017-08-15T13:24:40.201Z,29.50
2017-08-15T13:27:07.661Z,29.50
2017-08-15T13:29:35.193Z,29.40
2017-08-15T13:32:02.679Z,29.20
2017-08-15T13:34:30.141Z,29.10
2017-08-15T13:36:57.627Z,29.00
2017-08-15T13:39:25.091Z,28.90
2017-08-15T13:41:52.596Z,28.70
2017-08-15T13:44:20.054Z,28.70
2017-08-15T13:46:47.522Z,28.60
2017-08-15T13:49:14.997Z,28.60
2017-08-15T13:51:43.216Z,28.40
2017-08-15T13:54:10.678Z,28.40
2017-08-15T13:56:38.362Z,28.20
2017-08-15T13:59:05.833Z,28.10
2017-08-15T14:01:33.286Z,27.80
2017-08-15T14:04:00.750Z,27.70
2017-08-15T14:06:28.214Z,27.60
2017-08-15T14:08:55.700Z,27.40
2017-08-15T14:11:23.167Z,27.40
2017-08-15T14:13:50.629Z,27.40
2017-08-15T14:16:18.117Z,27.60
2017-08-15T14:18:45.558Z,27.80
2017-08-15T14:21:13.009Z,27.90
2017-08-15T14:23:40.507Z,28.00
2017-08-15T14:26:07.996Z,28.00
2017-08-15T14:28:35.461Z,27.90
2017-08-15T14:31:02.926Z,27.80
2017-08-15T14:33:30.407Z,27.80
2017-08-15T14:35:57.874Z,27.70
2017-08-15T14:38:25.339Z,27.70
2017-08-15T14:40:52.826Z,27.60
2017-08-15T14:43:20.283Z,27.60
2017-08-15T14:45:47.733Z,27.60
2017-08-15T14:48:15.212Z,27.40
2017-08-15T14:50:43.470Z,27.00
2017-08-15T14:53:10.925Z,27.00
2017-08-15T14:55:38.386Z,26.90
2017-08-15T14:58:05.870Z,26.80
2017-08-15T15:00:34.098Z,26.50
2017-08-15T15:03:01.565Z,26.40
2017-08-15T15:05:29.046Z,26.30
2017-08-15T15:07:56.522Z,26.20
2017-08-15T15:10:24.735Z,26.10
2017-08-15T15:12:52.190Z,26.00
2017-08-15T15:15:19.672Z,26.00
2017-08-15T15:17:47.117Z,25.90
2017-08-15T15:20:14.567Z,25.80
2017-08-15T15:22:42.089Z,25.80
2017-08-15T15:25:10.305Z,25.70
2017-08-15T15:27:37.754Z,25.60
2017-08-15T15:30:05.294Z,25.60
2017-08-15T15:32:32.801Z,25.60
2017-08-15T15:35:00.259Z,25.60
2017-08-15T15:37:27.738Z,25.50
2017-08-15T15:39:55.198Z,25.50
2017-08-15T15:42:22.646Z,25.40
2017-08-15T15:44:50.145Z,25.30
2017-08-15T15:47:22.411Z,25.30
2017-08-15T15:49:50.153Z,25.30
2017-08-15T15:52:17.616Z,25.20
2017-08-15T15:54:45.101Z,25.20
2017-08-15T15:57:12.552Z,25.10
2017-08-15T15:59:40.023Z,25.00
2017-08-15T16:02:07.496Z,25.00
2017-08-15T16:04:34.953Z,24.90
2017-08-15T16:07:02.416Z,25.00
2017-08-15T16:09:29.985Z,25.10
2017-08-15T16:11:57.440Z,25.20
2017-08-15T16:14:24.905Z,25.20
2017-08-15T16:16:52.381Z,25.20
2017-08-15T16:19:19.950Z,25.10
2017-08-15T16:21:47.392Z,25.00
2017-08-15T16:24:14.880Z,24.90
2017-08-15T16:26:42.333Z,24.90
2017-08-15T16:29:09.838Z,25.00
2017-08-15T16:31:37.281Z,25.00
2017-08-15T16:34:04.777Z,24.90
2017-08-15T16:36:32.277Z,24.80
2017-08-15T16:38:59.765Z,24.70
2017-08-15T16:41:27.287Z,24.50
2017-08-15T16:43:54.810Z,24.30
2017-08-15T16:46:22.301Z,24.20
2017-08-15T16:48:49.857Z,24.00
2017-08-15T16:51:17.406Z,23.90
2017-08-15T16:53:44.877Z,23.80
2017-08-15T16:56:13.113Z,23.80
2017-08-15T16:58:40.646Z,23.80
2017-08-15T17:01:08.106Z,23.90
2017-08-15T17:03:35.552Z,24.00
2017-08-15T17:06:03.038Z,24.00
2017-08-15T17:08:30.505Z,24.10
2017-08-15T17:10:57.957Z,24.20
2017-08-15T17:13:25.950Z,24.30
2017-08-15T17:15:54.196Z,24.30
2017-08-15T17:18:29.065Z,24.30
2017-08-15T17:20:58.508Z,24.30
2017-08-15T17:23:26.285Z,24.30
2017-08-15T17:25:54.506Z,24.30
2017-08-15T17:28:22.340Z,24.30
2017-08-15T17:30:49.837Z,24.30
2017-08-15T17:33:17.481Z,24.30
2017-08-15T17:35:45.501Z,24.20
2017-08-15T17:38:13.781Z,24.10
2017-08-15T17:40:41.230Z,24.10
2017-08-15T17:43:09.485Z,24.10
2017-08-15T17:45:37.073Z,24.10
2017-08-15T17:48:05.368Z,24.10
2017-08-15T17:50:32.891Z,24.00
2017-08-15T17:53:01.557Z,23.90
2017-08-15T17:55:29.880Z,23.80
2017-08-15T17:57:58.109Z,23.70
2017-08-15T18:00:25.598Z,23.70
2017-08-15T18:02:53.101Z,23.70
2017-08-15T18:05:20.625Z,23.80
2017-08-15T18:07:48.151Z,23.80
2017-08-15T18:10:15.629Z,23.80
2017-08-15T18:12:43.156Z,23.80
2017-08-15T18:15:10.676Z,23.70
2017-08-15T18:17:38.207Z,23.70
2017-08-15T18:20:06.467Z,23.70
2017-08-15T18:22:34.012Z,23.70
2017-08-15T18:25:01.502Z,23.70
2017-08-15T18:27:29.863Z,23.60
2017-08-15T18:29:57.764Z,23.60
2017-08-15T18:32:25.697Z,23.60
2017-08-15T18:34:53.392Z,23.50
2017-08-15T18:37:21.468Z,23.50
2017-08-15T18:39:49.020Z,23.40
2017-08-15T18:42:16.566Z,23.40
2017-08-15T18:44:44.085Z,23.50
2017-08-15T18:47:11.619Z,23.50
2017-08-15T18:49:39.129Z,23.50
2017-08-15T18:52:06.855Z,23.50
2017-08-15T18:54:34.317Z,23.50
2017-08-15T18:57:03.520Z,23.40
2017-08-15T18:59:31.171Z,23.40
2017-08-15T19:01:58.675Z,23.40
2017-08-15T19:04:26.366Z,23.30
2017-08-15T19:06:53.870Z,23.30
2017-08-15T19:09:21.584Z,23.20
2017-08-15T19:11:49.230Z,23.20
2017-08-15T19:14:18.844Z,23.10
2017-08-15T19:16:48.325Z,23.00
2017-08-15T19:19:16.141Z,22.90
2017-08-15T19:21:43.675Z,22.90
2017-08-15T19:24:23.359Z,22.90
2017-08-15T19:26:51.005Z,22.90
2017-08-15T19:29:18.635Z,22.80
2017-08-15T19:31:46.325Z,22.80
2017-08-15T19:34:14.069Z,22.70
2017-08-15T19:36:41.595Z,22.70
2017-08-15T19:39:09.284Z,22.60
2017-08-15T19:41:36.967Z,22.60
2017-08-15T19:44:04.633Z,22.70
2017-08-15T19:46:32.883Z,22.70
2017-08-15T19:49:00.397Z,22.80
2017-08-15T19:51:27.965Z,22.80
2017-08-15T19:53:55.681Z,22.80
2017-08-15T19:56:23.161Z,22.80
2017-08-15T19:58:51.378Z,22.80
2017-08-15T20:01:18.883Z,22.80
2017-08-15T20:03:46.379Z,22.80
2017-08-15T20:06:13.871Z,22.80
2017-08-15T20:08:41.370Z,22.80
2017-08-15T20:11:09.659Z,22.80
2017-08-15T20:13:37.107Z,22.80
2017-08-15T20:16:04.561Z,22.80
2017-08-15T20:18:32.813Z,22.70
2017-08-15T20:21:00.314Z,22.70
2017-08-15T20:23:28.543Z,22.60
2017-08-15T20:25:56.010Z,22.60
2017-08-15T20:28:23.474Z,22.60
2017-08-15T20:30:50.950Z,22.50
2017-08-15T20:33:18.410Z,22.50
2017-08-15T20:35:45.885Z,22.50
2017-08-15T20:38:13.346Z,22.40
2017-08-15T20:40:40.842Z,22.40
2017-08-15T20:43:08.348Z,22.30
2017-08-15T20:45:36.566Z,22.20
2017-08-15T20:48:04.021Z,22.20
2017-08-15T20:50:31.498Z,22.20
2017-08-15T20:52:58.958Z,22.10
2017-08-15T20:55:26.433Z,22.00
2017-08-15T20:57:53.886Z,21.90
2017-08-15T21:00:21.468Z,21.80
2017-08-15T21:02:48.972Z,21.80
2017-08-15T21:05:16.500Z,21.80
2017-08-15T21:07:43.968Z,21.80
2017-08-15T21:10:11.454Z,21.80
2017-08-15T21:12:38.910Z,21.90
2017-08-15T21:15:06.396Z,22.00
2017-08-15T21:17:33.858Z,22.00
2017-08-15T21:20:01.309Z,22.00
2017-08-15T21:22:28.791Z,21.90
2017-08-15T21:24:56.237Z,21.90
2017-08-15T21:27:23.719Z,21.80
2017-08-15T21:29:51.175Z,21.80
2017-08-15T21:32:18.645Z,21.80
2017-08-15T21:34:46.112Z,21.70
2017-08-15T21:37:13.595Z,21.70
2017-08-15T21:39:41.070Z,21.70
2017-08-15T21:42:08.530Z,21.70
2017-08-15T21:44:36.027Z,21.60
2017-08-15T21:47:03.502Z,21.60
2017-08-15T21:49:30.962Z,21.70
2017-08-15T21:51:58.455Z,21.70
2017-08-15T21:54:25.915Z,21.70
2017-08-15T21:56:53.394Z,21.60
2017-08-15T21:59:20.859Z,21.60
2017-08-15T22:01:53.930Z,21.60
2017-08-15T22:04:21.414Z,21.50
2017-08-15T22:06:48.870Z,21.40
2017-08-15T22:09:17.133Z,21.30
2017-08-15T22:11:44.585Z,21.30
2017-08-15T22:14:12.037Z,21.30
2017-08-15T22:16:39.514Z,21.30
2017-08-15T22:19:06.970Z,21.20
2017-08-15T22:21:34.458Z,21.20
2017-08-15T22:24:01.926Z,21.20
2017-08-15T22:26:29.381Z,21.20
2017-08-15T22:28:56.910Z,21.20
2017-08-15T22:31:24.385Z,21.20
2017-08-15T22:33:51.837Z,21.20
2017-08-15T22:36:19.317Z,21.20
2017-08-15T22:38:46.778Z,21.20
2017-08-15T22:41:14.275Z,21.10
2017-08-15T22:43:41.729Z,21.10
2017-08-15T22:46:09.190Z,21.00
2017-08-15T22:48:36.669Z,21.00
2017-08-15T22:51:04.147Z,20.90
2017-08-15T22:53:31.602Z,20.90
2017-08-15T22:55:59.842Z,20.80
2017-08-15T22:58:27.475Z,20.80
2017-08-15T23:00:54.931Z,20.80
2017-08-15T23:03:22.390Z,20.70
2017-08-15T23:05:49.866Z,20.70
2017-08-15T23:08:17.346Z,20.60
2017-08-15T23:10:44.801Z,20.60
2017-08-15T23:13:12.277Z,20.60
2017-08-15T23:15:40.571Z,20.50
2017-08-15T23:18:08.790Z,20.50
2017-08-15T23:20:36.250Z,20.50
2017-08-15T23:23:03.727Z,20.50
2017-08-15T23:25:31.177Z,20.50
2017-08-15T23:27:58.666Z,20.40
2017-08-15T23:30:26.885Z,20.40
2017-08-15T23:32:54.346Z,20.40
2017-08-15T23:35:21.818Z,20.40
2017-08-15T23:37:49.329Z,20.40
2017-08-15T23:40:17.557Z,20.30
2017-08-15T23:42:45.013Z,20.30
2017-08-15T23:45:12.490Z,20.30
2017-08-15T23:47:39.948Z,20.30
2017-08-15T23:50:07.423Z,20.20
2017-08-15T23:52:35.662Z,20.10
2017-08-15T23:55:03.114Z,20.10
2017-08-15T23:57:30.586Z,20.00
2017-08-15T23:59:58.045Z,20.00
